createdAt,value
2022-09-17T00:00:53.552Z,4.87
2022-09-17T00:04:00.127Z,5.80
2022-09-17T00:07:04.268Z,5.27
2022-09-17T00:10:08.350Z,6.33
2022-09-17T00:13:15.715Z,5.10
2022-09-17T00:16:27.252Z,6.10
2022-09-17T00:19:30.336Z,5.00
2022-09-17T00:22:33.302Z,6.47
2022-09-17T00:25:38.748Z,6.67
2022-09-17T00:28:45.436Z,5.00
2022-09-17T00:31:48.567Z,6.30
2022-09-17T00:34:52.165Z,6.37
2022-09-17T00:37:55.324Z,7.17
2022-09-17T00:40:58.309Z,6.70
2022-09-17T00:44:44.198Z,6.10
2022-09-17T00:47:53.293Z,5.83
2022-09-17T00:50:58.734Z,6.13
2022-09-17T00:54:03.927Z,6.67
2022-09-17T00:57:08.147Z,5.37
2022-09-17T01:00:14.971Z,6.20
2022-09-17T01:03:19.527Z,6.73
2022-09-17T01:06:33.426Z,5.87
2022-09-17T01:09:52.114Z,6.43
2022-09-17T01:13:10.181Z,6.17
2022-09-17T01:16:21.593Z,7.47
2022-09-17T01:20:07.469Z,6.67
2022-09-17T01:23:42.551Z,5.70
2022-09-17T01:27:29.647Z,6.50
2022-09-17T01:30:56.112Z,6.03
2022-09-17T01:34:06.213Z,5.97
2022-09-17T01:37:16.097Z,5.67
2022-09-17T01:40:25.863Z,6.30
2022-09-17T01:43:35.602Z,6.83
2022-09-17T01:46:44.893Z,8.43
2022-09-17T01:49:49.311Z,6.80
2022-09-17T01:52:54.672Z,6.40
2022-09-17T01:56:01.709Z,7.07
2022-09-17T01:59:11.329Z,6.30
2022-09-17T02:02:21.433Z,7.73
2022-09-17T02:05:30.449Z,6.83
2022-09-17T02:08:40.795Z,9.20
2022-09-17T02:11:50.011Z,7.70
2022-09-17T02:14:55.876Z,8.43
2022-09-17T02:18:08.199Z,6.30
2022-09-17T02:21:18.311Z,6.47
2022-09-17T02:24:25.610Z,6.43
2022-09-17T02:27:42.898Z,6.53
2022-09-17T02:30:45.962Z,6.77
2022-09-17T02:33:53.975Z,7.07
2022-09-17T02:36:58.460Z,6.83
2022-09-17T02:40:02.293Z,7.33
2022-09-17T02:43:19.039Z,6.67
2022-09-17T02:46:45.639Z,6.17
2022-09-17T02:50:14.789Z,6.23
2022-09-17T02:53:35.571Z,8.17
2022-09-17T02:56:48.201Z,8.37
2022-09-17T03:00:03.635Z,7.63
2022-09-17T03:03:13.795Z,7.70
2022-09-17T03:06:19.077Z,7.87
2022-09-17T03:09:22.021Z,9.13
2022-09-17T03:12:25.719Z,8.03
2022-09-17T03:15:28.750Z,8.47
2022-09-17T03:18:32.140Z,8.40
2022-09-17T03:21:36.506Z,8.80
2022-09-17T03:24:39.605Z,7.93
2022-09-17T03:27:43.016Z,8.33
2022-09-17T03:30:46.338Z,8.13
2022-09-17T03:33:50.135Z,6.37
2022-09-17T03:36:54.429Z,6.53
2022-09-17T03:39:57.463Z,6.63
2022-09-17T03:43:00.459Z,6.37
2022-09-17T03:46:03.894Z,6.73
2022-09-17T03:49:06.898Z,6.50
2022-09-17T03:52:11.159Z,8.57
2022-09-17T03:55:14.483Z,6.27
2022-09-17T03:58:17.491Z,7.33
2022-09-17T04:01:20.481Z,5.80
2022-09-17T04:04:23.662Z,6.47
2022-09-17T04:07:28.094Z,6.50
2022-09-17T04:10:31.080Z,6.17
2022-09-17T04:13:34.676Z,5.67
2022-09-17T04:16:37.662Z,5.23
2022-09-17T04:19:41.011Z,6.13
2022-09-17T04:22:45.334Z,6.10
2022-09-17T04:25:48.405Z,5.73
2022-09-17T04:28:51.757Z,6.07
2022-09-17T04:31:54.889Z,6.93
2022-09-17T04:34:57.826Z,5.57
2022-09-17T04:38:02.273Z,5.13
2022-09-17T04:41:08.133Z,6.70
2022-09-17T04:44:11.081Z,5.97
2022-09-17T04:47:14.055Z,5.83
2022-09-17T04:50:17.474Z,5.47
2022-09-17T04:53:21.865Z,6.80
2022-09-17T04:56:24.825Z,5.73
2022-09-17T04:59:27.812Z,4.80
2022-09-17T05:02:30.872Z,5.43
2022-09-17T05:05:34.006Z,5.77
2022-09-17T05:08:38.386Z,5.47
2022-09-17T05:11:41.564Z,6.23
2022-09-17T05:14:44.565Z,4.53
2022-09-17T05:17:47.769Z,4.80
2022-09-17T05:20:50.844Z,5.13
2022-09-17T05:23:55.406Z,4.30
2022-09-17T05:26:58.537Z,4.90
2022-09-17T05:30:01.529Z,5.10
2022-09-17T05:33:07.000Z,5.60
2022-09-17T05:36:10.040Z,5.67
2022-09-17T05:39:14.358Z,4.13
2022-09-17T05:42:17.453Z,4.63
2022-09-17T05:45:20.453Z,5.50
2022-09-17T05:48:23.642Z,4.77
2022-09-17T05:51:26.730Z,4.70
2022-09-17T05:54:31.069Z,4.50
2022-09-17T05:57:34.107Z,4.80
2022-09-17T06:00:37.117Z,5.93
2022-09-17T06:03:40.331Z,5.30
2022-09-17T06:06:43.577Z,4.57
2022-09-17T06:09:48.025Z,5.03
2022-09-17T06:12:57.482Z,4.57
2022-09-17T06:16:01.191Z,5.33
2022-09-17T06:19:04.915Z,6.47
2022-09-17T06:22:07.942Z,6.37
2022-09-17T06:25:13.246Z,5.90
2022-09-17T06:28:16.367Z,5.90
2022-09-17T06:31:19.817Z,6.40
2022-09-17T06:34:23.201Z,7.80
2022-09-17T06:37:29.178Z,5.83
2022-09-17T06:40:34.617Z,7.07
2022-09-17T06:43:37.675Z,7.73
2022-09-17T06:46:40.759Z,6.93
2022-09-17T06:49:44.155Z,7.17
2022-09-17T06:52:50.192Z,7.53
2022-09-17T06:56:02.348Z,7.70
2022-09-17T06:59:08.433Z,6.80
2022-09-17T07:02:11.474Z,6.97
2022-09-17T07:05:14.528Z,9.27
2022-09-17T07:08:18.292Z,7.37
2022-09-17T07:11:22.942Z,6.30
2022-09-17T07:14:25.933Z,6.80
2022-09-17T07:17:30.552Z,6.23
2022-09-17T07:20:33.599Z,6.53
2022-09-17T07:23:38.335Z,6.37
2022-09-17T07:26:42.670Z,6.70
2022-09-17T07:29:45.928Z,6.17
2022-09-17T07:32:49.148Z,6.13
2022-09-17T07:35:56.136Z,6.53
2022-09-17T07:38:59.233Z,6.80
2022-09-17T07:42:04.522Z,6.27
2022-09-17T07:45:09.858Z,5.03
2022-09-17T07:48:12.890Z,5.67
2022-09-17T07:51:17.939Z,6.10
2022-09-17T07:54:21.030Z,5.97
2022-09-17T07:57:25.731Z,6.30
2022-09-17T08:00:28.685Z,5.07
2022-09-17T08:03:31.776Z,6.33
2022-09-17T08:06:40.251Z,6.00
2022-09-17T08:09:43.603Z,6.10
2022-09-17T08:12:48.431Z,9.13
2022-09-17T08:15:51.414Z,4.93
2022-09-17T08:18:58.034Z,5.90
2022-09-17T08:22:01.033Z,6.57
2022-09-17T08:25:04.527Z,6.30
2022-09-17T08:28:09.187Z,5.53
2022-09-17T08:31:13.571Z,5.80
2022-09-17T08:34:16.842Z,5.17
2022-09-17T08:37:19.940Z,5.73
2022-09-17T08:40:24.661Z,5.13
2022-09-17T08:43:32.307Z,7.23
2022-09-17T08:46:42.917Z,6.03
2022-09-17T08:49:52.430Z,7.43
2022-09-17T08:53:23.520Z,5.47
2022-09-17T08:56:27.362Z,4.40
2022-09-17T08:59:39.200Z,5.10
2022-09-17T09:03:03.546Z,5.10
2022-09-17T09:06:10.625Z,4.87
2022-09-17T09:09:18.035Z,4.22
2022-09-17T09:12:26.962Z,6.43
2022-09-17T09:15:39.505Z,5.10
2022-09-17T09:18:43.071Z,3.80
2022-09-17T09:21:59.194Z,4.15
2022-09-17T09:25:20.317Z,6.17
2022-09-17T09:28:43.835Z,4.93
2022-09-17T09:32:16.853Z,6.28
2022-09-17T09:35:23.083Z,5.60
2022-09-17T09:38:33.882Z,4.95
2022-09-17T09:41:45.281Z,4.05
2022-09-17T09:44:48.379Z,4.80
2022-09-17T09:48:02.691Z,4.72
2022-09-17T09:51:19.700Z,5.18
2022-09-17T09:54:42.859Z,4.40
2022-09-17T09:57:49.019Z,5.85
2022-09-17T10:00:52.575Z,4.40
2022-09-17T10:03:58.948Z,4.50
2022-09-17T10:07:04.985Z,5.00
2022-09-17T10:10:11.834Z,7.93
2022-09-17T10:13:17.745Z,5.33
2022-09-17T10:16:24.411Z,4.70
2022-09-17T10:19:28.779Z,4.03
2022-09-17T10:22:34.456Z,5.13
2022-09-17T10:25:44.390Z,5.05
2022-09-17T10:28:51.860Z,4.28
2022-09-17T10:31:57.150Z,3.75
2022-09-17T10:35:07.164Z,3.45
2022-09-17T10:38:29.769Z,4.60
2022-09-17T10:41:33.013Z,3.75
2022-09-17T10:44:37.665Z,4.85
2022-09-17T10:47:43.853Z,4.40
2022-09-17T10:50:52.854Z,4.80
2022-09-17T10:54:29.415Z,4.27
2022-09-17T10:57:55.084Z,4.57
2022-09-17T11:01:11.876Z,4.60
2022-09-17T11:04:26.971Z,4.45
2022-09-17T11:07:46.065Z,7.82
2022-09-17T11:10:59.182Z,5.03
2022-09-17T11:14:14.162Z,5.40
2022-09-17T11:17:40.355Z,5.25
2022-09-17T11:21:10.599Z,4.82
2022-09-17T11:24:48.857Z,4.38
2022-09-17T11:28:07.685Z,3.75
2022-09-17T11:31:25.956Z,3.15
2022-09-17T11:34:36.807Z,3.70
2022-09-17T11:37:49.046Z,3.05
2022-09-17T11:41:02.508Z,3.30
2022-09-17T11:44:13.196Z,4.88
2022-09-17T11:47:21.655Z,3.63
2022-09-17T11:50:30.933Z,3.47
2022-09-17T11:53:40.735Z,3.67
2022-09-17T11:56:48.742Z,3.25
2022-09-17T11:59:56.758Z,4.55
2022-09-17T12:03:06.910Z,2.95
2022-09-17T12:06:15.883Z,2.70
2022-09-17T12:09:33.548Z,3.40
2022-09-17T12:12:50.164Z,2.53
2022-09-17T12:16:06.375Z,2.22
2022-09-17T12:19:18.502Z,2.80
2022-09-17T12:22:26.380Z,2.72
2022-09-17T12:25:35.282Z,2.92
2022-09-17T12:28:50.355Z,2.90
2022-09-17T12:31:59.903Z,2.55
2022-09-17T12:35:18.860Z,2.88
2022-09-17T12:38:53.594Z,3.10
2022-09-17T12:42:11.654Z,2.70
2022-09-17T12:45:38.492Z,2.80
2022-09-17T12:49:00.448Z,2.50
2022-09-17T12:52:08.162Z,2.55
2022-09-17T12:55:45.582Z,3.10
2022-09-17T12:59:10.959Z,2.60
2022-09-17T13:02:23.204Z,2.30
2022-09-17T13:06:00.351Z,2.67
2022-09-17T13:09:52.095Z,2.65
2022-09-17T13:13:05.821Z,3.08
2022-09-17T13:16:19.868Z,2.60
2022-09-17T13:19:37.094Z,2.75
2022-09-17T13:22:47.220Z,2.55
2022-09-17T13:25:52.993Z,3.05
2022-09-17T13:28:56.103Z,2.50
2022-09-17T13:31:59.255Z,2.53
2022-09-17T13:35:52.130Z,2.90
2022-09-17T13:38:55.218Z,2.88
2022-09-17T13:42:08.140Z,2.70
2022-09-17T13:45:16.147Z,3.33
2022-09-17T13:48:23.011Z,4.65
2022-09-17T13:51:52.397Z,2.45
2022-09-17T13:54:56.472Z,2.47
2022-09-17T13:57:59.578Z,2.90
2022-09-17T14:01:04.300Z,2.88
2022-09-17T14:04:08.158Z,3.05
2022-09-17T14:07:34.924Z,2.70
2022-09-17T14:10:44.167Z,2.92
2022-09-17T14:13:47.253Z,3.28
2022-09-17T14:16:51.363Z,3.15
2022-09-17T14:19:55.443Z,3.35
2022-09-17T14:23:02.278Z,2.88
2022-09-17T14:26:09.485Z,3.00
2022-09-17T14:29:30.100Z,2.95
2022-09-17T14:32:40.557Z,2.95
2022-09-17T14:35:46.319Z,3.30
2022-09-17T14:38:54.237Z,2.60
2022-09-17T14:41:57.697Z,2.45
2022-09-17T14:45:04.525Z,2.90
2022-09-17T14:48:31.153Z,3.03
2022-09-17T14:51:34.137Z,2.83
2022-09-17T14:54:38.682Z,2.65
2022-09-17T14:57:41.639Z,2.90
2022-09-17T15:00:53.621Z,2.60
2022-09-17T15:04:11.855Z,3.10
2022-09-17T15:07:14.937Z,2.85
2022-09-17T15:10:22.992Z,2.25
2022-09-17T15:13:28.767Z,2.20
2022-09-17T15:16:33.318Z,1.73
2022-09-17T15:19:40.046Z,2.10
2022-09-17T15:22:45.251Z,2.58
2022-09-17T15:25:54.922Z,2.17
2022-09-17T15:28:58.617Z,2.85
2022-09-17T15:32:05.898Z,1.65
2022-09-17T15:35:28.336Z,2.07
2022-09-17T15:38:32.987Z,2.10
2022-09-17T15:41:39.684Z,2.20
2022-09-17T15:44:42.878Z,2.10
2022-09-17T15:47:55.272Z,1.87
2022-09-17T15:51:00.678Z,2.23
2022-09-17T15:54:06.391Z,2.25
2022-09-17T15:57:17.195Z,2.30
2022-09-17T16:00:20.614Z,2.80
2022-09-17T16:04:06.703Z,2.00
2022-09-17T16:07:30.073Z,2.20
2022-09-17T16:10:34.579Z,2.70
2022-09-17T16:13:38.957Z,3.00
2022-09-17T16:16:42.115Z,2.80
2022-09-17T16:19:45.240Z,3.37
2022-09-17T16:22:49.477Z,3.00
2022-09-17T16:25:53.191Z,2.40
2022-09-17T16:29:03.345Z,2.40
2022-09-17T16:32:07.432Z,2.40
2022-09-17T16:35:17.219Z,2.10
2022-09-17T16:38:20.755Z,2.30
2022-09-17T16:41:23.842Z,2.90
2022-09-17T16:44:29.386Z,2.50
2022-09-17T16:47:37.124Z,2.30
2022-09-17T16:50:41.866Z,2.53
2022-09-17T16:53:44.875Z,2.77
2022-09-17T16:56:48.360Z,2.80
2022-09-17T16:59:52.702Z,2.00
2022-09-17T17:02:57.850Z,2.60
2022-09-17T17:06:00.876Z,2.10
2022-09-17T17:09:04.493Z,2.53
2022-09-17T17:12:08.223Z,2.90
2022-09-17T17:15:15.161Z,2.00
2022-09-17T17:18:21.554Z,2.90
2022-09-17T17:21:24.570Z,2.77
2022-09-17T17:24:27.503Z,2.70
2022-09-17T17:27:30.636Z,3.40
2022-09-17T17:30:35.326Z,2.63
2022-09-17T17:33:38.516Z,2.67
2022-09-17T17:36:42.145Z,2.77
2022-09-17T17:39:45.634Z,3.27
2022-09-17T17:42:52.888Z,3.33
2022-09-17T17:45:57.222Z,3.53
2022-09-17T17:49:00.425Z,2.10
2022-09-17T17:52:04.007Z,2.77
2022-09-17T17:55:08.491Z,3.20
2022-09-17T17:58:11.546Z,2.60
2022-09-17T18:01:17.937Z,2.90
2022-09-17T18:04:21.174Z,3.13
2022-09-17T18:07:24.287Z,2.27
2022-09-17T18:10:27.783Z,2.90
2022-09-17T18:13:30.975Z,2.33
2022-09-17T18:16:35.321Z,3.40
2022-09-17T18:19:38.350Z,2.57
2022-09-17T18:22:41.296Z,3.03
2022-09-17T18:25:53.293Z,3.40
2022-09-17T18:28:56.812Z,2.90
2022-09-17T18:32:01.429Z,3.67
2022-09-17T18:35:13.424Z,3.50
2022-09-17T18:38:22.823Z,3.43
2022-09-17T18:41:42.548Z,3.40
2022-09-17T18:44:46.051Z,2.50
2022-09-17T18:47:53.052Z,2.67
2022-09-17T18:50:58.625Z,3.47
2022-09-17T18:54:01.695Z,2.47
2022-09-17T18:57:05.649Z,3.60
2022-09-17T19:00:15.251Z,2.87
2022-09-17T19:03:23.035Z,4.10
2022-09-17T19:06:32.517Z,3.10
2022-09-17T19:09:36.978Z,2.97
2022-09-17T19:12:40.949Z,3.13
2022-09-17T19:15:43.982Z,3.30
2022-09-17T19:18:48.361Z,2.47
2022-09-17T19:21:53.188Z,2.83
2022-09-17T19:24:56.176Z,2.77
2022-09-17T19:27:59.384Z,3.20
2022-09-17T19:31:07.530Z,2.93
2022-09-17T19:34:13.521Z,4.53
2022-09-17T19:37:18.725Z,3.50
2022-09-17T19:40:29.328Z,3.60
2022-09-17T19:43:34.670Z,3.57
2022-09-17T19:46:40.896Z,2.70
2022-09-17T19:49:52.308Z,4.10
2022-09-17T19:52:55.509Z,3.20
2022-09-17T19:55:58.588Z,3.00
2022-09-17T19:59:08.866Z,2.83
2022-09-17T20:02:18.163Z,3.90
2022-09-17T20:05:22.657Z,4.13
2022-09-17T20:08:25.746Z,4.93
2022-09-17T20:11:28.824Z,4.23
2022-09-17T20:14:32.606Z,4.33
2022-09-17T20:17:41.772Z,3.63
2022-09-17T20:20:53.787Z,4.13
2022-09-17T20:24:05.314Z,4.50
2022-09-17T20:27:08.277Z,5.57
2022-09-17T20:30:21.357Z,5.20
2022-09-17T20:33:24.485Z,4.60
2022-09-17T20:36:31.638Z,4.93
2022-09-17T20:39:34.731Z,4.60
2022-09-17T20:42:37.742Z,4.30
2022-09-17T20:45:40.921Z,3.97
2022-09-17T20:48:44.172Z,4.20
2022-09-17T20:51:48.453Z,3.77
2022-09-17T20:54:51.400Z,4.53
2022-09-17T20:57:55.350Z,4.57
2022-09-17T21:01:06.796Z,4.40
2022-09-17T21:04:10.050Z,3.77
2022-09-17T21:07:14.479Z,4.40
2022-09-17T21:10:17.526Z,4.80
2022-09-17T21:13:20.684Z,4.73
2022-09-17T21:16:24.879Z,4.87
2022-09-17T21:19:29.312Z,5.00
2022-09-17T21:22:33.916Z,5.70
2022-09-17T21:25:36.855Z,5.50
2022-09-17T21:28:41.123Z,5.73
2022-09-17T21:31:44.591Z,5.77
2022-09-17T21:34:47.651Z,5.97
2022-09-17T21:37:53.139Z,6.17
2022-09-17T21:40:57.162Z,5.60
2022-09-17T21:44:00.393Z,6.87
2022-09-17T21:47:03.344Z,7.00
2022-09-17T21:50:07.669Z,5.70
2022-09-17T21:53:12.107Z,5.80
2022-09-17T21:56:17.422Z,5.17
2022-09-17T21:59:24.212Z,4.10
2022-09-17T22:02:27.933Z,4.97
2022-09-17T22:05:33.591Z,4.50
2022-09-17T22:08:38.031Z,3.80
2022-09-17T22:11:43.599Z,4.80
2022-09-17T22:14:46.978Z,5.10
2022-09-17T22:17:49.951Z,5.13
2022-09-17T22:20:52.999Z,4.13
2022-09-17T22:24:01.620Z,4.97
2022-09-17T22:27:04.818Z,3.87
2022-09-17T22:30:09.440Z,4.93
2022-09-17T22:33:12.367Z,4.80
2022-09-17T22:36:17.692Z,4.20
2022-09-17T22:39:23.265Z,4.70
2022-09-17T22:42:26.274Z,4.47
2022-09-17T22:45:29.876Z,4.63
2022-09-17T22:48:33.316Z,4.70
2022-09-17T22:51:36.892Z,6.30
2022-09-17T22:54:41.186Z,5.83
2022-09-17T22:57:44.176Z,5.33
2022-09-17T23:00:47.166Z,7.30
2022-09-17T23:03:53.082Z,7.30
2022-09-17T23:06:56.037Z,5.67
2022-09-17T23:10:00.514Z,6.17
2022-09-17T23:13:03.503Z,6.50
2022-09-17T23:16:09.870Z,6.50
2022-09-17T23:19:13.865Z,5.70
2022-09-17T23:22:16.810Z,6.77
2022-09-17T23:25:21.052Z,6.10
2022-09-17T23:28:24.297Z,6.43
2022-09-17T23:31:29.772Z,6.33
2022-09-17T23:34:34.988Z,5.67
2022-09-17T23:37:37.911Z,6.53
2022-09-17T23:40:42.401Z,5.93
2022-09-17T23:43:48.272Z,5.17
2022-09-17T23:46:51.264Z,4.50
2022-09-17T23:49:54.309Z,5.77
2022-09-17T23:52:57.487Z,3.97
2022-09-17T23:56:03.274Z,5.47
2022-09-17T23:59:07.310Z,5.37
